Virgin, Utah
Current Conditions -  °F | °C
As of 1:15 PM on Sunday 25 Jan 2015 (Local Time) from KAZC Reporting Station
Clear Clear  
Wind Chill: 60°   Ceiling: Unl
Heat Index: 60°   Visibility: 10mi
Dew Point: 28°   Wind: 6mph
Humidity: 30%   Direction: 40°NE
Pressure: 30.32"   Gusts: NA
Location:  37.21°N, 113.19°W
Report Text: KAZC 252015Z AUTO 04005KT 10SM CLR 15/M02 A3032 RMK AO2 T01531021
Loading
Personal Weather Stations






























Interactive Weather Map New forecast layout! Learn more

10-Day Weather Forecast

Advertisements
Track Severe Weather on mobile